createdAt,value
2022-08-30T00:01:36.523Z,21.40
2022-08-30T00:04:08.230Z,21.36
2022-08-30T00:06:36.193Z,21.32
2022-08-30T00:09:04.551Z,21.30
2022-08-30T00:11:32.447Z,21.29
2022-08-30T00:14:00.388Z,21.29
2022-08-30T00:16:28.581Z,21.27
2022-08-30T00:18:57.779Z,21.25
2022-08-30T00:21:27.107Z,21.23
2022-08-30T00:23:55.307Z,21.20
2022-08-30T00:26:23.270Z,21.17
2022-08-30T00:28:51.311Z,21.15
2022-08-30T00:31:19.549Z,21.10
2022-08-30T00:33:47.474Z,21.07
2022-08-30T00:36:16.900Z,21.03
2022-08-30T00:38:45.047Z,20.98
2022-08-30T00:41:12.960Z,20.95
2022-08-30T00:43:40.919Z,20.95
2022-08-30T00:46:10.411Z,20.93
2022-08-30T00:48:41.602Z,20.91
2022-08-30T00:51:13.619Z,20.88
2022-08-30T00:53:47.734Z,20.87
2022-08-30T00:56:17.924Z,20.85
2022-08-30T00:58:49.725Z,20.83
2022-08-30T01:01:19.099Z,20.78
2022-08-30T01:03:48.781Z,20.77
2022-08-30T01:06:17.515Z,20.74
2022-08-30T01:08:48.594Z,20.71
2022-08-30T01:11:20.719Z,20.69
2022-08-30T01:13:51.178Z,20.66
2022-08-30T01:16:20.198Z,20.62
2022-08-30T01:18:50.578Z,20.56
2022-08-30T01:21:25.335Z,20.49
2022-08-30T01:23:57.947Z,20.43
2022-08-30T01:26:26.649Z,20.38
2022-08-30T01:28:59.047Z,20.39
2022-08-30T01:31:27.298Z,20.40
2022-08-30T01:33:55.545Z,20.38
2022-08-30T01:36:23.715Z,20.31
2022-08-30T01:38:53.780Z,20.24
2022-08-30T01:41:25.415Z,20.22
2022-08-30T01:43:55.641Z,20.15
2022-08-30T01:46:28.120Z,20.07
2022-08-30T01:48:57.693Z,20.01
2022-08-30T01:51:28.369Z,20.03
2022-08-30T01:53:56.987Z,20.07
2022-08-30T01:56:27.986Z,20.08
2022-08-30T01:59:00.434Z,20.08
2022-08-30T02:01:32.937Z,20.08
2022-08-30T02:04:01.790Z,20.03
2022-08-30T02:06:29.913Z,19.96
2022-08-30T02:08:57.810Z,19.89
2022-08-30T02:11:27.601Z,19.80
2022-08-30T02:13:55.522Z,19.73
2022-08-30T02:16:24.653Z,19.66
2022-08-30T02:18:54.939Z,19.60
2022-08-30T02:21:22.884Z,19.55
2022-08-30T02:23:51.290Z,19.48
2022-08-30T02:26:19.664Z,19.42
2022-08-30T02:28:50.476Z,19.35
2022-08-30T02:31:19.388Z,19.28
2022-08-30T02:33:51.075Z,19.18
2022-08-30T02:36:20.715Z,19.17
2022-08-30T02:38:50.530Z,19.15
2022-08-30T02:41:19.255Z,19.10
2022-08-30T02:43:48.784Z,19.08
2022-08-30T02:46:17.318Z,19.05
2022-08-30T02:48:45.553Z,19.03
2022-08-30T02:51:14.890Z,19.00
2022-08-30T02:53:45.318Z,18.98
2022-08-30T02:56:15.332Z,18.93
2022-08-30T02:58:44.846Z,18.92
2022-08-30T03:01:16.310Z,18.87
2022-08-30T03:03:46.888Z,18.88
2022-08-30T03:06:15.254Z,18.83
2022-08-30T03:08:43.191Z,18.81
2022-08-30T03:11:13.736Z,18.79
2022-08-30T03:13:42.678Z,18.76
2022-08-30T03:16:10.735Z,18.76
2022-08-30T03:18:43.240Z,18.82
2022-08-30T03:21:12.037Z,18.88
2022-08-30T03:23:40.867Z,18.90
2022-08-30T03:26:10.576Z,19.00
2022-08-30T03:28:38.606Z,19.04
2022-08-30T03:31:07.324Z,19.12
2022-08-30T03:33:35.610Z,19.18
2022-08-30T03:36:08.062Z,19.27
2022-08-30T03:38:36.935Z,19.32
2022-08-30T03:41:05.954Z,19.36
2022-08-30T03:43:36.013Z,19.42
2022-08-30T03:46:05.274Z,19.43
2022-08-30T03:48:33.403Z,19.45
2022-08-30T03:51:01.480Z,19.48
2022-08-30T03:53:31.578Z,19.58
2022-08-30T03:55:59.656Z,19.59
2022-08-30T03:58:28.870Z,19.61
2022-08-30T04:00:57.074Z,19.66
2022-08-30T04:03:26.337Z,19.66
2022-08-30T04:05:54.243Z,19.62
2022-08-30T04:08:22.487Z,19.60
2022-08-30T04:10:53.456Z,19.63
2022-08-30T04:13:21.910Z,19.63
2022-08-30T04:15:50.493Z,19.64
2022-08-30T04:18:19.056Z,19.64
2022-08-30T04:20:47.581Z,19.63
2022-08-30T04:23:16.069Z,19.63
2022-08-30T04:25:44.339Z,19.59
2022-08-30T04:28:14.154Z,19.58
2022-08-30T04:30:43.989Z,19.57
2022-08-30T04:33:13.357Z,19.56
2022-08-30T04:35:42.710Z,19.57
2022-08-30T04:38:11.498Z,19.55
2022-08-30T04:40:39.753Z,19.54
2022-08-30T04:43:09.750Z,19.54
2022-08-30T04:45:40.016Z,19.53
2022-08-30T04:48:08.539Z,19.54
2022-08-30T04:50:36.567Z,19.53
2022-08-30T04:53:12.793Z,19.55
2022-08-30T04:55:41.699Z,19.50
2022-08-30T04:58:10.030Z,19.51
2022-08-30T05:00:42.040Z,19.55
2022-08-30T05:03:10.376Z,19.60
2022-08-30T05:05:41.730Z,19.62
2022-08-30T05:08:11.640Z,19.62
2022-08-30T05:10:41.417Z,19.68
2022-08-30T05:13:09.535Z,19.71
2022-08-30T05:15:40.277Z,19.75
2022-08-30T05:18:11.531Z,19.78
2022-08-30T05:20:42.979Z,19.87
2022-08-30T05:23:11.350Z,19.92
2022-08-30T05:25:41.394Z,19.96
2022-08-30T05:28:09.909Z,20.03
2022-08-30T05:30:39.408Z,20.12
2022-08-30T05:33:07.651Z,20.18
2022-08-30T05:35:35.524Z,20.23
2022-08-30T05:38:03.738Z,20.27
2022-08-30T05:40:31.927Z,20.30
2022-08-30T05:43:00.272Z,20.40
2022-08-30T05:45:28.484Z,20.43
2022-08-30T05:47:58.191Z,20.47
2022-08-30T05:50:26.051Z,20.53
2022-08-30T05:52:54.251Z,20.58
2022-08-30T05:55:22.581Z,20.64
2022-08-30T05:57:50.605Z,20.72
2022-08-30T06:00:20.122Z,20.80
2022-08-30T06:02:48.303Z,20.92
2022-08-30T06:05:17.718Z,21.01
2022-08-30T06:07:45.641Z,21.12
2022-08-30T06:10:15.219Z,21.22
2022-08-30T06:12:45.273Z,21.27
2022-08-30T06:15:13.727Z,21.27
2022-08-30T06:17:41.760Z,21.39
2022-08-30T06:20:11.104Z,21.53
2022-08-30T06:22:40.965Z,21.50
2022-08-30T06:25:11.168Z,21.68
2022-08-30T06:27:39.927Z,21.88
2022-08-30T06:30:10.933Z,22.04
2022-08-30T06:32:39.624Z,22.19
2022-08-30T06:35:08.724Z,22.29
2022-08-30T06:37:36.688Z,22.32
2022-08-30T06:40:07.498Z,22.40
2022-08-30T06:42:35.505Z,22.51
2022-08-30T06:45:11.000Z,22.62
2022-08-30T06:47:40.479Z,22.69
2022-08-30T06:50:11.784Z,22.92
2022-08-30T06:52:42.300Z,23.05
2022-08-30T06:55:13.429Z,23.20
2022-08-30T06:57:41.630Z,23.22
2022-08-30T07:00:12.332Z,23.38
2022-08-30T07:02:40.778Z,23.56
2022-08-30T07:05:15.405Z,23.62
2022-08-30T07:07:46.082Z,23.69
2022-08-30T07:10:17.241Z,23.83
2022-08-30T07:12:45.201Z,24.00
2022-08-30T07:15:13.496Z,23.95
2022-08-30T07:17:59.773Z,23.97
2022-08-30T07:20:28.321Z,24.04
2022-08-30T07:23:11.251Z,23.99
2022-08-30T07:25:41.833Z,24.09
2022-08-30T07:28:11.711Z,24.06
2022-08-30T07:30:41.731Z,24.19
2022-08-30T07:33:10.683Z,24.25
2022-08-30T07:35:38.788Z,24.30
2022-08-30T07:38:06.770Z,24.52
2022-08-30T07:40:35.168Z,24.63
2022-08-30T07:43:04.533Z,24.87
2022-08-30T07:45:32.442Z,25.03
2022-08-30T07:48:04.347Z,25.26
2022-08-30T07:50:32.496Z,25.30
2022-08-30T07:53:00.763Z,25.21
2022-08-30T07:55:28.995Z,25.35
2022-08-30T07:57:57.256Z,25.56
2022-08-30T08:00:27.254Z,25.76
2022-08-30T08:02:55.959Z,25.92
2022-08-30T08:05:24.923Z,26.05
2022-08-30T08:07:53.113Z,26.21
2022-08-30T08:10:21.479Z,26.41
2022-08-30T08:12:49.684Z,26.64
2022-08-30T08:15:20.301Z,26.63
2022-08-30T08:17:51.280Z,26.88
2022-08-30T08:20:23.338Z,27.01
2022-08-30T08:22:52.042Z,27.03
2022-08-30T08:25:20.520Z,27.06
2022-08-30T08:27:50.813Z,27.20
2022-08-30T08:30:19.465Z,27.41
2022-08-30T08:32:48.419Z,27.52
2022-08-30T08:35:18.792Z,27.64
2022-08-30T08:37:47.075Z,27.74
2022-08-30T08:40:19.799Z,27.86
2022-08-30T08:43:00.878Z,27.92
2022-08-30T08:45:42.760Z,28.10
2022-08-30T08:48:17.928Z,27.98
2022-08-30T08:51:02.972Z,28.31
2022-08-30T08:53:52.773Z,28.51
2022-08-30T08:56:23.077Z,28.73
2022-08-30T08:58:53.636Z,28.96
2022-08-30T09:01:25.444Z,29.24
2022-08-30T09:03:54.399Z,29.31
2022-08-30T09:06:45.308Z,29.22
2022-08-30T09:09:14.765Z,29.23
2022-08-30T09:11:44.315Z,29.35
2022-08-30T09:14:17.800Z,29.27
2022-08-30T09:16:48.241Z,29.53
2022-08-30T09:19:45.253Z,29.59
2022-08-30T09:22:22.631Z,29.82
2022-08-30T09:24:53.665Z,29.43
2022-08-30T09:27:30.364Z,29.32
2022-08-30T09:30:02.322Z,29.15
2022-08-30T09:32:34.075Z,28.91
2022-08-30T09:35:02.458Z,28.87
2022-08-30T09:37:36.682Z,28.90
2022-08-30T09:40:13.171Z,28.59
2022-08-30T09:42:42.570Z,28.61
2022-08-30T09:45:31.818Z,28.68
2022-08-30T09:48:00.112Z,28.72
2022-08-30T09:50:33.919Z,29.20
2022-08-30T09:53:11.808Z,29.18
2022-08-30T09:55:53.835Z,29.50
2022-08-30T09:58:36.304Z,29.74
2022-08-30T10:01:11.671Z,29.56
2022-08-30T10:03:47.123Z,29.66
2022-08-30T10:06:24.590Z,29.74
2022-08-30T10:09:07.185Z,29.61
2022-08-30T10:11:45.591Z,29.81
2022-08-30T10:14:56.465Z,29.99
2022-08-30T10:17:39.148Z,30.00
2022-08-30T10:20:17.807Z,30.34
2022-08-30T10:22:51.911Z,30.24
2022-08-30T10:25:27.584Z,30.54
2022-08-30T10:28:03.706Z,30.66
2022-08-30T10:30:37.251Z,30.65
2022-08-30T10:33:09.864Z,31.08
2022-08-30T10:35:45.136Z,31.15
2022-08-30T10:38:22.647Z,31.07
2022-08-30T10:41:14.758Z,30.71
2022-08-30T10:43:50.994Z,30.37
2022-08-30T10:46:30.190Z,30.05
2022-08-30T10:49:02.132Z,29.88
2022-08-30T10:51:37.665Z,29.82
2022-08-30T10:54:12.473Z,30.12
2022-08-30T10:56:52.368Z,30.33
2022-08-30T10:59:21.759Z,30.08
2022-08-30T11:02:16.426Z,30.12
2022-08-30T11:05:02.412Z,30.17
2022-08-30T11:07:41.319Z,30.56
2022-08-30T11:10:29.200Z,30.54
2022-08-30T11:13:03.677Z,30.54
2022-08-30T11:15:35.513Z,30.85
2022-08-30T11:18:12.118Z,31.02
2022-08-30T11:20:44.420Z,31.29
2022-08-30T11:23:25.961Z,31.27
2022-08-30T11:25:58.067Z,31.09
2022-08-30T11:29:03.510Z,30.89
2022-08-30T11:31:44.598Z,30.76
2022-08-30T11:34:13.433Z,30.47
2022-08-30T11:37:09.838Z,30.40
2022-08-30T11:39:53.035Z,30.33
2022-08-30T11:45:47.011Z,29.98
2022-08-30T11:48:53.796Z,29.96
2022-08-30T11:52:26.481Z,29.98
2022-08-30T11:55:00.670Z,30.36
2022-08-30T11:57:34.491Z,30.86
2022-08-30T12:00:08.915Z,30.87
2022-08-30T12:02:51.619Z,30.68
2022-08-30T12:05:53.431Z,30.31
2022-08-30T12:08:55.132Z,30.37
2022-08-30T12:12:02.376Z,30.77
2022-08-30T12:14:44.796Z,31.23
2022-08-30T12:17:42.119Z,31.51
2022-08-30T12:20:26.319Z,31.67
2022-08-30T12:22:55.472Z,32.13
2022-08-30T12:25:30.643Z,31.90
2022-08-30T12:28:15.385Z,31.61
2022-08-30T12:30:46.802Z,31.24
2022-08-30T12:33:29.545Z,30.90
2022-08-30T12:36:01.310Z,30.72
2022-08-30T12:38:32.824Z,30.63
2022-08-30T12:41:04.875Z,30.56
2022-08-30T12:43:40.623Z,30.96
2022-08-30T12:46:15.156Z,31.19
2022-08-30T12:48:44.711Z,31.03
2022-08-30T12:51:30.004Z,31.12
2022-08-30T12:54:07.003Z,30.77
2022-08-30T12:57:09.985Z,30.86
2022-08-30T12:59:59.155Z,30.87
2022-08-30T13:02:42.212Z,30.84
2022-08-30T13:05:30.476Z,30.64
2022-08-30T13:08:12.848Z,30.43
2022-08-30T13:10:54.758Z,30.17
2022-08-30T13:13:40.346Z,29.91
2022-08-30T13:16:22.309Z,29.97
2022-08-30T13:18:52.337Z,29.85
2022-08-30T13:21:25.062Z,29.98
2022-08-30T13:23:58.623Z,30.10
2022-08-30T13:26:28.344Z,30.49
2022-08-30T13:28:59.070Z,30.80
2022-08-30T13:31:29.295Z,31.17
2022-08-30T13:33:59.408Z,31.54
2022-08-30T13:36:31.497Z,31.78
2022-08-30T13:39:01.834Z,31.91
2022-08-30T13:41:34.077Z,32.00
2022-08-30T13:44:13.072Z,32.08
2022-08-30T13:46:48.630Z,32.06
2022-08-30T13:52:26.834Z,32.10
2022-08-30T13:54:57.916Z,32.13
2022-08-30T14:00:19.890Z,32.38
2022-08-30T14:02:54.767Z,32.56
2022-08-30T14:05:47.635Z,32.58
2022-08-30T14:11:05.787Z,32.70
2022-08-30T14:13:34.678Z,32.64
2022-08-30T14:18:56.186Z,32.75
2022-08-30T14:21:25.011Z,32.62
2022-08-30T14:23:53.309Z,32.51
2022-08-30T14:26:24.771Z,32.44
2022-08-30T14:28:54.183Z,32.58
2022-08-30T14:31:22.579Z,32.48
2022-08-30T14:33:51.134Z,32.54
2022-08-30T14:36:19.935Z,32.03
2022-08-30T14:38:49.229Z,32.04
2022-08-30T14:41:17.882Z,32.16
2022-08-30T14:43:47.186Z,32.09
2022-08-30T14:46:15.386Z,32.22
2022-08-30T14:48:44.515Z,32.15
2022-08-30T14:51:16.830Z,32.03
2022-08-30T14:53:46.179Z,31.71
2022-08-30T14:56:19.941Z,31.80
2022-08-30T14:58:51.236Z,31.75
2022-08-30T15:01:20.506Z,31.74
2022-08-30T15:03:49.072Z,31.52
2022-08-30T15:06:19.654Z,31.58
2022-08-30T15:08:48.555Z,31.52
2022-08-30T15:11:19.490Z,31.59
2022-08-30T15:13:48.291Z,31.45
2022-08-30T15:16:21.348Z,31.54
2022-08-30T15:18:49.865Z,31.51
2022-08-30T15:21:24.894Z,31.31
2022-08-30T15:23:53.769Z,31.07
2022-08-30T15:26:22.494Z,31.12
2022-08-30T15:28:50.717Z,31.27
2022-08-30T15:31:22.716Z,31.30
2022-08-30T15:33:51.294Z,31.77
2022-08-30T15:36:19.255Z,32.56
2022-08-30T15:38:48.208Z,33.17
2022-08-30T15:41:16.721Z,33.49
2022-08-30T15:43:44.651Z,33.67
2022-08-30T15:46:22.524Z,34.09
2022-08-30T15:48:55.205Z,34.22
2022-08-30T15:51:24.157Z,34.38
2022-08-30T15:53:53.335Z,34.12
2022-08-30T15:56:21.474Z,34.21
2022-08-30T15:58:49.830Z,34.21
2022-08-30T16:01:30.716Z,34.28
2022-08-30T16:03:59.498Z,34.32
2022-08-30T16:06:31.850Z,34.26
2022-08-30T16:09:00.230Z,34.34
2022-08-30T16:11:28.408Z,34.48
2022-08-30T16:13:57.343Z,34.93
2022-08-30T16:16:27.456Z,35.31
2022-08-30T16:18:55.505Z,35.81
2022-08-30T16:21:26.551Z,36.07
2022-08-30T16:23:56.267Z,36.05
2022-08-30T16:26:25.486Z,36.11
2022-08-30T16:28:53.891Z,36.15
2022-08-30T16:31:23.313Z,36.31
2022-08-30T16:33:53.395Z,35.97
2022-08-30T16:36:22.970Z,35.23
2022-08-30T16:38:57.450Z,34.32
2022-08-30T16:41:27.986Z,33.68
2022-08-30T16:43:56.147Z,32.97
2022-08-30T16:46:27.879Z,32.48
2022-08-30T16:49:00.162Z,31.79
2022-08-30T16:51:30.490Z,31.35
2022-08-30T16:54:00.987Z,30.92
2022-08-30T16:56:31.556Z,30.55
2022-08-30T16:59:02.613Z,30.22
2022-08-30T17:01:32.498Z,30.03
2022-08-30T17:04:06.473Z,29.73
2022-08-30T17:06:35.617Z,29.64
2022-08-30T17:09:05.139Z,29.55
2022-08-30T17:11:33.355Z,29.40
2022-08-30T17:14:01.720Z,29.31
2022-08-30T17:16:30.709Z,29.16
2022-08-30T17:19:00.043Z,29.05
2022-08-30T17:21:30.785Z,28.91
2022-08-30T17:24:02.110Z,28.72
2022-08-30T17:26:32.304Z,28.51
2022-08-30T17:29:00.797Z,28.35
2022-08-30T17:31:30.837Z,28.18
2022-08-30T17:34:02.875Z,28.06
2022-08-30T17:36:36.994Z,27.95
2022-08-30T17:39:11.419Z,27.81
2022-08-30T17:41:54.356Z,27.71
2022-08-30T17:44:25.837Z,27.49
2022-08-30T17:46:54.929Z,27.35
2022-08-30T17:49:23.514Z,27.26
2022-08-30T17:51:56.839Z,27.15
2022-08-30T17:54:26.171Z,27.08
2022-08-30T17:56:55.291Z,26.91
2022-08-30T17:59:24.865Z,26.89
2022-08-30T18:01:55.244Z,26.75
2022-08-30T18:04:24.872Z,26.64
2022-08-30T18:06:54.799Z,26.53
2022-08-30T18:09:23.938Z,26.49
2022-08-30T18:11:56.303Z,26.38
2022-08-30T18:14:24.529Z,26.30
2022-08-30T18:16:54.313Z,26.22
2022-08-30T18:19:23.250Z,26.11
2022-08-30T18:21:51.452Z,25.93
2022-08-30T18:24:21.546Z,25.79
2022-08-30T18:26:50.133Z,25.68
2022-08-30T18:29:29.394Z,25.55
2022-08-30T18:32:00.249Z,25.40
2022-08-30T18:34:29.021Z,25.21
2022-08-30T18:36:57.369Z,25.11
2022-08-30T18:39:26.981Z,24.99
2022-08-30T18:41:55.875Z,24.86
2022-08-30T18:44:28.946Z,24.71
2022-08-30T18:47:00.168Z,24.55
2022-08-30T18:49:32.283Z,24.39
2022-08-30T18:52:01.124Z,24.25
2022-08-30T18:54:31.111Z,24.14
2022-08-30T18:56:59.182Z,24.02
2022-08-30T18:59:35.714Z,23.92
2022-08-30T19:02:06.570Z,23.87
2022-08-30T19:04:35.537Z,23.70
2022-08-30T19:07:05.970Z,23.60
2022-08-30T19:09:35.317Z,23.55
2022-08-30T19:12:03.576Z,23.52
2022-08-30T19:14:37.720Z,23.54
2022-08-30T19:17:07.267Z,23.52
2022-08-30T19:19:37.353Z,23.59
2022-08-30T19:22:19.046Z,23.61
2022-08-30T19:24:49.697Z,23.61
2022-08-30T19:27:21.662Z,23.59
2022-08-30T19:30:07.310Z,23.55
2022-08-30T19:32:35.507Z,23.48
2022-08-30T19:35:03.520Z,23.46
2022-08-30T19:37:31.492Z,23.42
2022-08-30T19:40:04.887Z,23.36
2022-08-30T19:42:32.864Z,23.26
2022-08-30T19:45:00.905Z,23.16
2022-08-30T19:47:29.116Z,23.04
2022-08-30T19:49:57.555Z,22.91
2022-08-30T19:52:30.275Z,22.80
2022-08-30T19:54:59.050Z,22.70
2022-08-30T19:57:28.500Z,22.70
2022-08-30T19:59:57.745Z,22.64
2022-08-30T20:02:26.270Z,22.57
2022-08-30T20:04:55.543Z,22.53
2022-08-30T20:07:27.462Z,22.48
2022-08-30T20:09:56.635Z,22.58
2022-08-30T20:12:24.822Z,22.65
2022-08-30T20:14:54.167Z,22.70
2022-08-30T20:17:34.097Z,22.76
2022-08-30T20:20:17.732Z,22.83
2022-08-30T20:22:50.930Z,22.85
2022-08-30T20:25:23.104Z,22.88
2022-08-30T20:27:51.332Z,22.87
2022-08-30T20:30:20.816Z,22.85
2022-08-30T20:32:49.388Z,22.83
2022-08-30T20:35:18.478Z,22.76
2022-08-30T20:37:46.767Z,22.70
2022-08-30T20:40:16.335Z,22.64
2022-08-30T20:42:45.668Z,22.61
2022-08-30T20:45:16.089Z,22.58
2022-08-30T20:47:45.879Z,22.52
2022-08-30T20:50:17.000Z,22.49
2022-08-30T20:52:46.137Z,22.46
2022-08-30T20:55:15.442Z,22.48
2022-08-30T20:57:43.375Z,22.43
2022-08-30T21:00:14.442Z,22.44
2022-08-30T21:02:47.030Z,22.50
2022-08-30T21:05:18.372Z,22.52
2022-08-30T21:07:47.187Z,22.53
2022-08-30T21:10:19.996Z,22.52
2022-08-30T21:12:51.910Z,22.52
2022-08-30T21:15:36.856Z,22.52
2022-08-30T21:18:07.132Z,22.51
2022-08-30T21:20:36.028Z,22.42
2022-08-30T21:23:04.171Z,22.42
2022-08-30T21:25:34.059Z,22.43
2022-08-30T21:28:02.473Z,22.44
2022-08-30T21:30:30.450Z,22.43
2022-08-30T21:33:00.001Z,22.43
2022-08-30T21:35:47.856Z,22.39
2022-08-30T21:38:16.799Z,22.37
2022-08-30T21:40:45.216Z,22.27
2022-08-30T21:43:13.584Z,22.21
2022-08-30T21:45:43.032Z,22.21
2022-08-30T21:48:13.004Z,22.23
2022-08-30T21:50:45.730Z,22.21
2022-08-30T21:53:15.309Z,22.11
2022-08-30T21:55:45.693Z,22.09
2022-08-30T21:58:16.172Z,22.03
2022-08-30T22:00:44.136Z,21.95
2022-08-30T22:03:12.521Z,21.85
2022-08-30T22:05:41.930Z,21.77
2022-08-30T22:08:09.912Z,21.70
2022-08-30T22:10:38.059Z,21.64
2022-08-30T22:13:10.019Z,21.68
2022-08-30T22:15:38.918Z,21.63
2022-08-30T22:18:08.209Z,21.55
2022-08-30T22:20:36.210Z,21.52
2022-08-30T22:23:06.124Z,21.47
2022-08-30T22:25:34.147Z,21.49
2022-08-30T22:28:02.204Z,21.44
2022-08-30T22:30:32.700Z,21.39
2022-08-30T22:33:00.686Z,21.36
2022-08-30T22:35:28.744Z,21.37
2022-08-30T22:37:56.899Z,21.31
2022-08-30T22:40:26.220Z,21.28
2022-08-30T22:42:54.199Z,21.26
2022-08-30T22:45:22.592Z,21.22
2022-08-30T22:47:50.763Z,21.19
2022-08-30T22:50:18.774Z,21.19
2022-08-30T22:52:50.104Z,21.20
2022-08-30T22:55:18.066Z,21.18
2022-08-30T22:57:47.594Z,21.20
2022-08-30T23:00:17.661Z,21.21
2022-08-30T23:02:50.491Z,21.21
2022-08-30T23:05:20.572Z,21.21
2022-08-30T23:07:50.740Z,21.22
2022-08-30T23:10:19.848Z,21.26
2022-08-30T23:12:49.851Z,21.26
2022-08-30T23:15:18.067Z,21.23
2022-08-30T23:17:46.042Z,21.26
2022-08-30T23:20:14.951Z,21.23
2022-08-30T23:22:45.512Z,21.24
2022-08-30T23:25:32.146Z,21.24
2022-08-30T23:28:29.383Z,21.23
2022-08-30T23:31:15.266Z,21.27
2022-08-30T23:34:01.159Z,21.31
2022-08-30T23:36:47.235Z,21.35
2022-08-30T23:39:33.226Z,21.33
2022-08-30T23:42:19.104Z,21.37
2022-08-30T23:45:06.510Z,21.41
2022-08-30T23:47:52.132Z,21.44
2022-08-30T23:50:38.228Z,21.48
2022-08-30T23:53:23.731Z,21.51
2022-08-30T23:56:09.891Z,21.49
2022-08-30T23:58:57.096Z,21.55
